sensor_id;sensor_type;location;lat;lon;timestamp;temperature;humidity
8226;DHT22;4154;48.810;9.012;2022-07-29T00:03:02;21.10;91.50
8226;DHT22;4154;48.810;9.012;2022-07-29T00:20:06;20.90;91.90
8226;DHT22;4154;48.810;9.012;2022-07-29T00:27:28;20.80;92.30
8226;DHT22;4154;48.810;9.012;2022-07-29T00:42:23;20.60;98.60
8226;DHT22;4154;48.810;9.012;2022-07-29T00:44:48;20.70;92.80
8226;DHT22;4154;48.810;9.012;2022-07-29T00:47:14;20.70;92.90
8226;DHT22;4154;48.810;9.012;2022-07-29T00:49:41;20.60;92.70
8226;DHT22;4154;48.810;9.012;2022-07-29T00:52:08;20.60;92.70
8226;DHT22;4154;48.810;9.012;2022-07-29T00:54:36;20.60;92.90
8226;DHT22;4154;48.810;9.012;2022-07-29T00:57:06;20.60;92.80
8226;DHT22;4154;48.810;9.012;2022-07-29T01:06:53;20.50;92.90
8226;DHT22;4154;48.810;9.012;2022-07-29T01:11:47;20.50;93.00
8226;DHT22;4154;48.810;9.012;2022-07-29T01:14:14;20.50;93.10
8226;DHT22;4154;48.810;9.012;2022-07-29T01:16:51;20.80;99.60
8226;DHT22;4154;48.810;9.012;2022-07-29T01:19:56;20.40;99.10
8226;DHT22;4154;48.810;9.012;2022-07-29T01:28:14;20.40;93.50
8226;DHT22;4154;48.810;9.012;2022-07-29T01:30:51;20.40;93.40
8226;DHT22;4154;48.810;9.012;2022-07-29T01:33:20;20.40;93.40
8226;DHT22;4154;48.810;9.012;2022-07-29T01:36:13;20.50;93.50
8226;DHT22;4154;48.810;9.012;2022-07-29T01:38:45;20.50;93.60
8226;DHT22;4154;48.810;9.012;2022-07-29T01:41:17;20.50;93.60
8226;DHT22;4154;48.810;9.012;2022-07-29T01:43:56;20.30;99.60
8226;DHT22;4154;48.810;9.012;2022-07-29T01:46:35;20.50;93.90
8226;DHT22;4154;48.810;9.012;2022-07-29T01:49:11;20.50;93.90
8226;DHT22;4154;48.810;9.012;2022-07-29T01:51:52;20.40;99.70
8226;DHT22;4154;48.810;9.012;2022-07-29T01:54:42;20.50;93.90
8226;DHT22;4154;48.810;9.012;2022-07-29T01:57:14;20.50;93.90
8226;DHT22;4154;48.810;9.012;2022-07-29T01:59:45;20.50;93.70
8226;DHT22;4154;48.810;9.012;2022-07-29T02:02:15;20.60;93.70
8226;DHT22;4154;48.810;9.012;2022-07-29T02:04:45;20.50;93.90
8226;DHT22;4154;48.810;9.012;2022-07-29T02:07:16;20.60;93.90
8226;DHT22;4154;48.810;9.012;2022-07-29T02:09:45;20.50;93.50
8226;DHT22;4154;48.810;9.012;2022-07-29T02:12:14;20.50;93.70
8226;DHT22;4154;48.810;9.012;2022-07-29T02:14:47;20.50;99.60
8226;DHT22;4154;48.810;9.012;2022-07-29T02:17:23;20.50;93.50
8226;DHT22;4154;48.810;9.012;2022-07-29T02:19:55;20.50;93.70
8226;DHT22;4154;48.810;9.012;2022-07-29T02:22:24;20.50;93.70
8226;DHT22;4154;48.810;9.012;2022-07-29T02:27:20;20.50;93.30
8226;DHT22;4154;48.810;9.012;2022-07-29T02:29:51;20.50;93.70
8226;DHT22;4154;48.810;9.012;2022-07-29T02:32:19;20.50;93.40
8226;DHT22;4154;48.810;9.012;2022-07-29T02:34:48;20.50;93.30
8226;DHT22;4154;48.810;9.012;2022-07-29T02:37:16;20.50;93.60
8226;DHT22;4154;48.810;9.012;2022-07-29T02:39:44;20.50;93.50
8226;DHT22;4154;48.810;9.012;2022-07-29T02:42:15;20.40;93.30
8226;DHT22;4154;48.810;9.012;2022-07-29T02:49:58;20.30;99.90
8226;DHT22;4154;48.810;9.012;2022-07-29T02:52:37;20.90;99.80
8226;DHT22;4154;48.810;9.012;2022-07-29T02:55:18;20.40;93.60
8226;DHT22;4154;48.810;9.012;2022-07-29T02:57:58;20.40;93.70
8226;DHT22;4154;48.810;9.012;2022-07-29T03:00:28;20.40;93.60
8226;DHT22;4154;48.810;9.012;2022-07-29T03:02:59;20.50;93.70
8226;DHT22;4154;48.810;9.012;2022-07-29T03:05:29;20.40;93.80
8226;DHT22;4154;48.810;9.012;2022-07-29T03:08:00;20.50;94.00
8226;DHT22;4154;48.810;9.012;2022-07-29T03:10:28;20.40;99.90
8226;DHT22;4154;48.810;9.012;2022-07-29T03:12:55;20.60;99.90
8226;DHT22;4154;48.810;9.012;2022-07-29T03:15:23;20.40;99.90
8226;DHT22;4154;48.810;9.012;2022-07-29T03:17:51;20.30;93.80
8226;DHT22;4154;48.810;9.012;2022-07-29T03:22:45;20.30;93.90
8226;DHT22;4154;48.810;9.012;2022-07-29T03:25:15;20.30;94.00
8226;DHT22;4154;48.810;9.012;2022-07-29T03:27:42;20.30;94.20
8226;DHT22;4154;48.810;9.012;2022-07-29T03:30:10;20.30;94.30
8226;DHT22;4154;48.810;9.012;2022-07-29T03:35:04;20.20;94.10
8226;DHT22;4154;48.810;9.012;2022-07-29T03:37:30;20.50;99.90
8226;DHT22;4154;48.810;9.012;2022-07-29T03:39:57;20.10;94.20
8226;DHT22;4154;48.810;9.012;2022-07-29T03:42:25;20.10;99.90
8226;DHT22;4154;48.810;9.012;2022-07-29T03:44:55;20.10;94.40
8226;DHT22;4154;48.810;9.012;2022-07-29T03:47:26;20.10;94.60
8226;DHT22;4154;48.810;9.012;2022-07-29T03:50:00;20.10;94.40
8226;DHT22;4154;48.810;9.012;2022-07-29T03:52:39;19.90;99.90
8226;DHT22;4154;48.810;9.012;2022-07-29T03:55:06;20.00;94.10
8226;DHT22;4154;48.810;9.012;2022-07-29T03:57:34;20.40;99.90
8226;DHT22;4154;48.810;9.012;2022-07-29T04:00:02;20.00;94.00
8226;DHT22;4154;48.810;9.012;2022-07-29T04:02:31;19.90;99.90
8226;DHT22;4154;48.810;9.012;2022-07-29T04:04:58;19.90;93.80
8226;DHT22;4154;48.810;9.012;2022-07-29T04:07:24;19.90;93.80
8226;DHT22;4154;48.810;9.012;2022-07-29T04:09:50;19.90;93.90
8226;DHT22;4154;48.810;9.012;2022-07-29T04:15:58;19.80;99.90
8226;DHT22;4154;48.810;9.012;2022-07-29T04:18:24;19.80;94.00
8226;DHT22;4154;48.810;9.012;2022-07-29T04:20:50;19.70;99.90
8226;DHT22;4154;48.810;9.012;2022-07-29T04:25:43;19.70;99.70
8226;DHT22;4154;48.810;9.012;2022-07-29T04:28:09;19.70;99.70
8226;DHT22;4154;48.810;9.012;2022-07-29T04:30:36;19.60;93.70
8226;DHT22;4154;48.810;9.012;2022-07-29T04:33:05;19.70;93.70
8226;DHT22;4154;48.810;9.012;2022-07-29T04:35:36;19.70;93.70
8226;DHT22;4154;48.810;9.012;2022-07-29T04:38:04;19.70;93.70
8226;DHT22;4154;48.810;9.012;2022-07-29T04:40:31;19.70;94.00
8226;DHT22;4154;48.810;9.012;2022-07-29T04:42:59;19.70;93.90
8226;DHT22;4154;48.810;9.012;2022-07-29T04:45:26;19.70;93.90
8226;DHT22;4154;48.810;9.012;2022-07-29T04:47:52;19.70;94.00
8226;DHT22;4154;48.810;9.012;2022-07-29T04:50:18;19.70;93.90
8226;DHT22;4154;48.810;9.012;2022-07-29T04:52:44;19.80;99.80
8226;DHT22;4154;48.810;9.012;2022-07-29T04:55:10;19.80;94.00
8226;DHT22;4154;48.810;9.012;2022-07-29T04:57:36;19.90;99.60
8226;DHT22;4154;48.810;9.012;2022-07-29T05:00:03;19.90;99.80
8226;DHT22;4154;48.810;9.012;2022-07-29T05:02:30;20.00;99.70
8226;DHT22;4154;48.810;9.012;2022-07-29T05:04:56;19.80;99.60
8226;DHT22;4154;48.810;9.012;2022-07-29T05:07:22;19.90;94.00
8226;DHT22;4154;48.810;9.012;2022-07-29T05:12:14;19.90;94.00
8226;DHT22;4154;48.810;9.012;2022-07-29T05:14:40;20.00;94.20
8226;DHT22;4154;48.810;9.012;2022-07-29T05:17:05;20.00;94.10
8226;DHT22;4154;48.810;9.012;2022-07-29T05:19:31;20.00;94.00
8226;DHT22;4154;48.810;9.012;2022-07-29T05:21:57;20.10;94.20
8226;DHT22;4154;48.810;9.012;2022-07-29T05:24:23;20.10;99.90
8226;DHT22;4154;48.810;9.012;2022-07-29T05:26:48;20.30;99.80
8226;DHT22;4154;48.810;9.012;2022-07-29T05:29:14;20.20;94.20
8226;DHT22;4154;48.810;9.012;2022-07-29T05:31:40;20.20;94.20
8226;DHT22;4154;48.810;9.012;2022-07-29T05:34:06;20.20;94.10
8226;DHT22;4154;48.810;9.012;2022-07-29T05:36:32;20.30;94.00
8226;DHT22;4154;48.810;9.012;2022-07-29T05:38:58;20.30;94.10
8226;DHT22;4154;48.810;9.012;2022-07-29T05:41:23;20.40;99.70
8226;DHT22;4154;48.810;9.012;2022-07-29T05:43:49;20.40;94.20
8226;DHT22;4154;48.810;9.012;2022-07-29T05:46:15;20.40;94.20
8226;DHT22;4154;48.810;9.012;2022-07-29T05:48:41;20.50;94.50
8226;DHT22;4154;48.810;9.012;2022-07-29T05:51:06;20.50;94.40
8226;DHT22;4154;48.810;9.012;2022-07-29T05:56:03;20.60;94.10
8226;DHT22;4154;48.810;9.012;2022-07-29T05:58:30;20.60;94.30
8226;DHT22;4154;48.810;9.012;2022-07-29T06:00:56;20.60;94.20
8226;DHT22;4154;48.810;9.012;2022-07-29T06:05:52;20.70;94.10
8226;DHT22;4154;48.810;9.012;2022-07-29T06:08:18;20.70;94.20
8226;DHT22;4154;48.810;9.012;2022-07-29T06:10:44;20.80;94.10
8226;DHT22;4154;48.810;9.012;2022-07-29T06:13:11;20.80;93.90
8226;DHT22;4154;48.810;9.012;2022-07-29T06:15:37;20.90;93.90
8226;DHT22;4154;48.810;9.012;2022-07-29T06:18:04;20.90;93.80
8226;DHT22;4154;48.810;9.012;2022-07-29T06:23:00;21.00;93.60
8226;DHT22;4154;48.810;9.012;2022-07-29T06:25:27;21.00;93.80
8226;DHT22;4154;48.810;9.012;2022-07-29T06:30:26;21.10;93.40
8226;DHT22;4154;48.810;9.012;2022-07-29T06:32:54;21.30;98.60
8226;DHT22;4154;48.810;9.012;2022-07-29T06:37:47;21.10;93.30
8226;DHT22;4154;48.810;9.012;2022-07-29T06:42:57;21.20;93.50
8226;DHT22;4154;48.810;9.012;2022-07-29T06:47:50;21.40;99.60
8226;DHT22;4154;48.810;9.012;2022-07-29T06:52:42;21.10;98.70
8226;DHT22;4154;48.810;9.012;2022-07-29T06:55:08;21.30;93.60
8226;DHT22;4154;48.810;9.012;2022-07-29T06:57:34;21.30;93.80
8226;DHT22;4154;48.810;9.012;2022-07-29T07:00:01;21.40;93.60
8226;DHT22;4154;48.810;9.012;2022-07-29T07:02:29;21.40;98.40
8226;DHT22;4154;48.810;9.012;2022-07-29T07:04:55;21.40;93.40
8226;DHT22;4154;48.810;9.012;2022-07-29T07:07:21;21.50;93.50
8226;DHT22;4154;48.810;9.012;2022-07-29T07:12:13;21.60;93.20
8226;DHT22;4154;48.810;9.012;2022-07-29T07:14:39;21.60;93.40
8226;DHT22;4154;48.810;9.012;2022-07-29T07:17:06;21.70;98.50
8226;DHT22;4154;48.810;9.012;2022-07-29T07:19:33;21.70;93.40
8226;DHT22;4154;48.810;9.012;2022-07-29T07:24:25;21.70;92.90
8226;DHT22;4154;48.810;9.012;2022-07-29T07:26:51;21.80;93.10
8226;DHT22;4154;48.810;9.012;2022-07-29T07:29:17;21.80;93.00
8226;DHT22;4154;48.810;9.012;2022-07-29T07:31:43;21.90;92.90
8226;DHT22;4154;48.810;9.012;2022-07-29T07:34:09;21.90;92.70
8226;DHT22;4154;48.810;9.012;2022-07-29T07:36:35;22.00;92.70
8226;DHT22;4154;48.810;9.012;2022-07-29T07:39:01;22.00;98.00
8226;DHT22;4154;48.810;9.012;2022-07-29T07:41:27;22.10;93.10
8226;DHT22;4154;48.810;9.012;2022-07-29T07:43:56;22.20;93.00
8226;DHT22;4154;48.810;9.012;2022-07-29T07:46:22;22.30;92.70
8226;DHT22;4154;48.810;9.012;2022-07-29T07:51:14;22.40;92.50
8226;DHT22;4154;48.810;9.012;2022-07-29T07:53:40;22.50;92.40
8226;DHT22;4154;48.810;9.012;2022-07-29T07:58:33;22.60;91.80
8226;DHT22;4154;48.810;9.012;2022-07-29T08:01:00;22.60;96.50
8226;DHT22;4154;48.810;9.012;2022-07-29T08:03:26;22.60;91.80
8226;DHT22;4154;48.810;9.012;2022-07-29T08:10:46;22.70;90.80
8226;DHT22;4154;48.810;9.012;2022-07-29T08:13:20;22.70;90.90
8226;DHT22;4154;48.810;9.012;2022-07-29T08:15:48;22.80;91.00
8226;DHT22;4154;48.810;9.012;2022-07-29T08:18:26;22.80;90.80
8226;DHT22;4154;48.810;9.012;2022-07-29T08:20:54;22.90;91.10
8226;DHT22;4154;48.810;9.012;2022-07-29T08:23:21;23.00;88.90
8226;DHT22;4154;48.810;9.012;2022-07-29T08:30:41;23.10;89.20
8226;DHT22;4154;48.810;9.012;2022-07-29T08:33:07;23.20;86.60
8226;DHT22;4154;48.810;9.012;2022-07-29T08:35:33;23.10;85.70
8226;DHT22;4154;48.810;9.012;2022-07-29T08:37:59;23.20;86.30
8226;DHT22;4154;48.810;9.012;2022-07-29T08:40:25;23.20;86.00
8226;DHT22;4154;48.810;9.012;2022-07-29T08:42:51;23.20;86.10
8226;DHT22;4154;48.810;9.012;2022-07-29T08:45:17;23.30;86.20
8226;DHT22;4154;48.810;9.012;2022-07-29T08:47:44;23.40;87.50
8226;DHT22;4154;48.810;9.012;2022-07-29T08:52:39;23.60;94.40
8226;DHT22;4154;48.810;9.012;2022-07-29T08:55:08;23.50;89.10
8226;DHT22;4154;48.810;9.012;2022-07-29T08:57:35;23.50;88.70
8226;DHT22;4154;48.810;9.012;2022-07-29T09:00:05;23.70;87.70
8226;DHT22;4154;48.810;9.012;2022-07-29T09:02:39;23.80;87.00
8226;DHT22;4154;48.810;9.012;2022-07-29T09:05:06;23.80;87.50
8226;DHT22;4154;48.810;9.012;2022-07-29T09:07:33;23.90;93.30
8226;DHT22;4154;48.810;9.012;2022-07-29T09:09:59;23.80;93.20
8226;DHT22;4154;48.810;9.012;2022-07-29T09:12:26;24.00;91.70
8226;DHT22;4154;48.810;9.012;2022-07-29T09:14:52;23.90;83.70
8226;DHT22;4154;48.810;9.012;2022-07-29T09:17:39;24.00;82.10
8226;DHT22;4154;48.810;9.012;2022-07-29T09:20:11;24.00;82.80
8226;DHT22;4154;48.810;9.012;2022-07-29T09:22:45;23.90;91.90
8226;DHT22;4154;48.810;9.012;2022-07-29T09:25:38;24.10;84.00
8226;DHT22;4154;48.810;9.012;2022-07-29T09:28:14;24.10;85.80
8226;DHT22;4154;48.810;9.012;2022-07-29T09:30:52;24.10;86.50
8226;DHT22;4154;48.810;9.012;2022-07-29T09:33:21;24.20;87.70
8226;DHT22;4154;48.810;9.012;2022-07-29T09:36:07;24.30;87.50
8226;DHT22;4154;48.810;9.012;2022-07-29T09:38:35;24.50;86.60
8226;DHT22;4154;48.810;9.012;2022-07-29T09:41:04;24.60;85.30
8226;DHT22;4154;48.810;9.012;2022-07-29T09:43:33;24.60;85.80
8226;DHT22;4154;48.810;9.012;2022-07-29T09:46:14;24.70;84.70
8226;DHT22;4154;48.810;9.012;2022-07-29T09:48:40;24.70;84.60
8226;DHT22;4154;48.810;9.012;2022-07-29T09:51:19;24.80;92.20
8226;DHT22;4154;48.810;9.012;2022-07-29T09:53:46;24.80;84.70
8226;DHT22;4154;48.810;9.012;2022-07-29T09:56:12;24.80;83.30
8226;DHT22;4154;48.810;9.012;2022-07-29T09:58:39;24.70;83.20
8226;DHT22;4154;48.810;9.012;2022-07-29T10:01:05;24.70;81.40
8226;DHT22;4154;48.810;9.012;2022-07-29T10:06:11;24.50;80.00
8226;DHT22;4154;48.810;9.012;2022-07-29T10:08:38;24.40;79.70
8226;DHT22;4154;48.810;9.012;2022-07-29T10:13:38;24.30;80.60
8226;DHT22;4154;48.810;9.012;2022-07-29T10:16:04;24.30;78.50
8226;DHT22;4154;48.810;9.012;2022-07-29T10:18:31;24.20;78.00
8226;DHT22;4154;48.810;9.012;2022-07-29T10:20:58;24.30;90.90
8226;DHT22;4154;48.810;9.012;2022-07-29T10:23:28;24.10;78.70
8226;DHT22;4154;48.810;9.012;2022-07-29T10:25:54;24.10;79.10
8226;DHT22;4154;48.810;9.012;2022-07-29T10:28:21;24.10;79.80
8226;DHT22;4154;48.810;9.012;2022-07-29T10:30:50;24.00;78.60
8226;DHT22;4154;48.810;9.012;2022-07-29T10:33:34;24.00;79.00
8226;DHT22;4154;48.810;9.012;2022-07-29T10:36:24;24.00;77.50
8226;DHT22;4154;48.810;9.012;2022-07-29T10:39:20;23.90;78.40
8226;DHT22;4154;48.810;9.012;2022-07-29T10:42:19;23.90;80.90
8226;DHT22;4154;48.810;9.012;2022-07-29T10:44:48;23.90;81.50
8226;DHT22;4154;48.810;9.012;2022-07-29T10:50:04;23.70;87.10
8226;DHT22;4154;48.810;9.012;2022-07-29T10:55:37;23.60;87.30
8226;DHT22;4154;48.810;9.012;2022-07-29T10:58:17;23.60;90.40
8226;DHT22;4154;48.810;9.012;2022-07-29T11:00:57;23.50;91.70
8226;DHT22;4154;48.810;9.012;2022-07-29T11:03:47;23.30;93.70
8226;DHT22;4154;48.810;9.012;2022-07-29T11:06:14;23.10;94.20
8226;DHT22;4154;48.810;9.012;2022-07-29T11:08:40;22.90;95.00
8226;DHT22;4154;48.810;9.012;2022-07-29T11:13:46;22.40;95.80
8226;DHT22;4154;48.810;9.012;2022-07-29T11:16:14;22.10;96.90
8226;DHT22;4154;48.810;9.012;2022-07-29T11:21:36;22.10;97.60
8226;DHT22;4154;48.810;9.012;2022-07-29T11:24:18;22.00;98.10
8226;DHT22;4154;48.810;9.012;2022-07-29T11:27:09;22.10;98.90
8226;DHT22;4154;48.810;9.012;2022-07-29T11:29:48;22.10;99.20
8226;DHT22;4154;48.810;9.012;2022-07-29T11:34:47;22.40;99.90
8226;DHT22;4154;48.810;9.012;2022-07-29T11:37:15;22.40;99.90
8226;DHT22;4154;48.810;9.012;2022-07-29T11:45:20;22.70;99.80
8226;DHT22;4154;48.810;9.012;2022-07-29T11:50:34;22.70;99.30
8226;DHT22;4154;48.810;9.012;2022-07-29T11:53:09;22.80;99.70
8226;DHT22;4154;48.810;9.012;2022-07-29T12:03:05;22.90;99.90
8226;DHT22;4154;48.810;9.012;2022-07-29T12:05:38;22.90;99.90
8226;DHT22;4154;48.810;9.012;2022-07-29T12:23:05;22.70;99.80
8226;DHT22;4154;48.810;9.012;2022-07-29T12:25:34;22.70;99.70
8226;DHT22;4154;48.810;9.012;2022-07-29T12:28:07;22.60;99.90
8226;DHT22;4154;48.810;9.012;2022-07-29T12:30:45;22.70;99.40
8226;DHT22;4154;48.810;9.012;2022-07-29T12:33:20;22.60;99.50
8226;DHT22;4154;48.810;9.012;2022-07-29T12:35:58;22.50;99.30
8226;DHT22;4154;48.810;9.012;2022-07-29T12:40:53;22.50;99.50
8226;DHT22;4154;48.810;9.012;2022-07-29T12:43:21;22.40;99.60
8226;DHT22;4154;48.810;9.012;2022-07-29T12:45:54;22.40;99.90
8226;DHT22;4154;48.810;9.012;2022-07-29T12:48:39;22.40;99.90
8226;DHT22;4154;48.810;9.012;2022-07-29T12:51:08;22.40;99.90
8226;DHT22;4154;48.810;9.012;2022-07-29T12:53:36;22.40;99.90
8226;DHT22;4154;48.810;9.012;2022-07-29T12:56:04;22.50;99.90
8226;DHT22;4154;48.810;9.012;2022-07-29T13:01:19;22.50;99.90
8226;DHT22;4154;48.810;9.012;2022-07-29T13:03:59;22.50;99.90
8226;DHT22;4154;48.810;9.012;2022-07-29T13:06:44;22.50;99.90
8226;DHT22;4154;48.810;9.012;2022-07-29T13:09:42;22.50;99.80
8226;DHT22;4154;48.810;9.012;2022-07-29T13:12:23;22.50;99.90
8226;DHT22;4154;48.810;9.012;2022-07-29T13:17:18;22.50;99.90
8226;DHT22;4154;48.810;9.012;2022-07-29T13:19:53;22.50;99.90
8226;DHT22;4154;48.810;9.012;2022-07-29T13:22:41;22.50;99.90
8226;DHT22;4154;48.810;9.012;2022-07-29T13:27:37;22.50;99.60
8226;DHT22;4154;48.810;9.012;2022-07-29T13:30:07;22.60;99.90
8226;DHT22;4154;48.810;9.012;2022-07-29T13:35:06;22.50;98.20
8226;DHT22;4154;48.810;9.012;2022-07-29T13:37:34;22.60;97.60
8226;DHT22;4154;48.810;9.012;2022-07-29T13:40:04;22.70;99.90
8226;DHT22;4154;48.810;9.012;2022-07-29T13:54:45;23.30;95.60
8226;DHT22;4154;48.810;9.012;2022-07-29T13:57:12;23.10;99.90
8226;DHT22;4154;48.810;9.012;2022-07-29T13:59:42;23.30;95.30
8226;DHT22;4154;48.810;9.012;2022-07-29T14:02:09;23.30;95.20
8226;DHT22;4154;48.810;9.012;2022-07-29T14:55:48;24.00;98.50
8226;DHT22;4154;48.810;9.012;2022-07-29T15:08:03;24.10;92.50
8226;DHT22;4154;48.810;9.012;2022-07-29T15:25:09;24.20;91.50
8226;DHT22;4154;48.810;9.012;2022-07-29T15:37:23;24.20;90.90
8226;DHT22;4154;48.810;9.012;2022-07-29T15:39:49;24.20;90.90
8226;DHT22;4154;48.810;9.012;2022-07-29T15:49:39;24.20;90.20
8226;DHT22;4154;48.810;9.012;2022-07-29T15:52:07;24.20;89.20
8226;DHT22;4154;48.810;9.012;2022-07-29T15:54:40;24.20;89.20
8226;DHT22;4154;48.810;9.012;2022-07-29T16:14:19;24.30;88.40
8226;DHT22;4154;48.810;9.012;2022-07-29T16:16:45;24.30;88.80
8226;DHT22;4154;48.810;9.012;2022-07-29T16:19:11;24.30;89.50
8226;DHT22;4154;48.810;9.012;2022-07-29T16:21:37;24.30;88.70
8226;DHT22;4154;48.810;9.012;2022-07-29T16:24:06;24.30;88.50
8226;DHT22;4154;48.810;9.012;2022-07-29T16:26:33;24.30;90.00
8226;DHT22;4154;48.810;9.012;2022-07-29T16:28:59;24.30;90.20
8226;DHT22;4154;48.810;9.012;2022-07-29T16:31:26;24.40;90.40
8226;DHT22;4154;48.810;9.012;2022-07-29T16:33:52;24.40;90.50
8226;DHT22;4154;48.810;9.012;2022-07-29T16:36:19;24.50;90.20
8226;DHT22;4154;48.810;9.012;2022-07-29T16:38:46;24.50;90.00
8226;DHT22;4154;48.810;9.012;2022-07-29T16:41:12;24.60;90.20
8226;DHT22;4154;48.810;9.012;2022-07-29T16:43:38;24.60;90.00
8226;DHT22;4154;48.810;9.012;2022-07-29T16:46:07;24.60;90.00
8226;DHT22;4154;48.810;9.012;2022-07-29T16:48:33;24.50;89.40
8226;DHT22;4154;48.810;9.012;2022-07-29T16:50:59;24.50;89.40
8226;DHT22;4154;48.810;9.012;2022-07-29T16:53:25;24.50;90.20
8226;DHT22;4154;48.810;9.012;2022-07-29T16:55:51;24.50;90.30
8226;DHT22;4154;48.810;9.012;2022-07-29T16:58:17;24.50;90.20
8226;DHT22;4154;48.810;9.012;2022-07-29T17:05:35;24.50;89.70
8226;DHT22;4154;48.810;9.012;2022-07-29T17:08:00;24.50;90.00
8226;DHT22;4154;48.810;9.012;2022-07-29T17:10:26;24.50;90.10
8226;DHT22;4154;48.810;9.012;2022-07-29T17:12:54;24.60;95.20
8226;DHT22;4154;48.810;9.012;2022-07-29T17:15:19;24.50;90.20
8226;DHT22;4154;48.810;9.012;2022-07-29T17:17:45;24.60;90.30
8226;DHT22;4154;48.810;9.012;2022-07-29T17:20:12;24.60;90.50
8226;DHT22;4154;48.810;9.012;2022-07-29T17:22:37;24.60;95.70
8226;DHT22;4154;48.810;9.012;2022-07-29T17:25:05;24.60;90.80
8226;DHT22;4154;48.810;9.012;2022-07-29T17:27:32;24.60;90.40
8226;DHT22;4154;48.810;9.012;2022-07-29T17:29:58;24.60;90.30
8226;DHT22;4154;48.810;9.012;2022-07-29T17:32:24;24.60;90.20
8226;DHT22;4154;48.810;9.012;2022-07-29T17:34:50;24.50;88.90
8226;DHT22;4154;48.810;9.012;2022-07-29T17:37:16;24.50;87.60
8226;DHT22;4154;48.810;9.012;2022-07-29T17:39:42;24.50;86.60
8226;DHT22;4154;48.810;9.012;2022-07-29T17:42:09;24.50;82.80
8226;DHT22;4154;48.810;9.012;2022-07-29T17:44:37;24.40;77.70
8226;DHT22;4154;48.810;9.012;2022-07-29T17:47:04;24.40;75.80
8226;DHT22;4154;48.810;9.012;2022-07-29T17:49:31;24.40;75.60
8226;DHT22;4154;48.810;9.012;2022-07-29T17:51:58;24.40;75.50
8226;DHT22;4154;48.810;9.012;2022-07-29T17:54:24;24.40;75.40
8226;DHT22;4154;48.810;9.012;2022-07-29T17:56:50;24.40;74.60
8226;DHT22;4154;48.810;9.012;2022-07-29T17:59:16;24.40;74.40
8226;DHT22;4154;48.810;9.012;2022-07-29T18:06:34;24.40;74.30
8226;DHT22;4154;48.810;9.012;2022-07-29T18:09:00;24.40;74.80
8226;DHT22;4154;48.810;9.012;2022-07-29T18:11:26;24.40;75.30
8226;DHT22;4154;48.810;9.012;2022-07-29T18:13:53;24.40;75.90
8226;DHT22;4154;48.810;9.012;2022-07-29T18:16:18;24.40;76.40
8226;DHT22;4154;48.810;9.012;2022-07-29T18:18:44;24.40;77.00
8226;DHT22;4154;48.810;9.012;2022-07-29T18:21:11;24.40;75.70
8226;DHT22;4154;48.810;9.012;2022-07-29T18:23:37;24.40;75.20
8226;DHT22;4154;48.810;9.012;2022-07-29T18:26:03;24.40;75.40
8226;DHT22;4154;48.810;9.012;2022-07-29T18:28:29;24.30;75.70
8226;DHT22;4154;48.810;9.012;2022-07-29T18:30:57;24.30;76.60
8226;DHT22;4154;48.810;9.012;2022-07-29T18:33:23;24.30;76.30
8226;DHT22;4154;48.810;9.012;2022-07-29T18:35:51;24.20;75.60
8226;DHT22;4154;48.810;9.012;2022-07-29T18:38:18;24.20;73.50
8226;DHT22;4154;48.810;9.012;2022-07-29T18:40:47;24.20;73.50
8226;DHT22;4154;48.810;9.012;2022-07-29T18:43:13;24.10;73.50
8226;DHT22;4154;48.810;9.012;2022-07-29T18:45:39;24.10;72.80
8226;DHT22;4154;48.810;9.012;2022-07-29T18:48:05;24.10;73.20
8226;DHT22;4154;48.810;9.012;2022-07-29T18:53:00;24.00;72.80
8226;DHT22;4154;48.810;9.012;2022-07-29T18:55:27;24.00;73.90
8226;DHT22;4154;48.810;9.012;2022-07-29T18:57:53;24.20;88.50
8226;DHT22;4154;48.810;9.012;2022-07-29T19:00:19;23.90;75.20
8226;DHT22;4154;48.810;9.012;2022-07-29T19:05:11;23.80;75.20
8226;DHT22;4154;48.810;9.012;2022-07-29T19:07:37;23.80;90.00
8226;DHT22;4154;48.810;9.012;2022-07-29T19:10:03;23.70;75.00
8226;DHT22;4154;48.810;9.012;2022-07-29T19:12:30;23.60;87.90
8226;DHT22;4154;48.810;9.012;2022-07-29T19:14:56;23.80;90.20
8226;DHT22;4154;48.810;9.012;2022-07-29T19:17:22;23.60;87.70
8226;DHT22;4154;48.810;9.012;2022-07-29T19:37:00;23.10;79.00
8226;DHT22;4154;48.810;9.012;2022-07-29T19:46:46;22.90;80.20
8226;DHT22;4154;48.810;9.012;2022-07-29T19:49:12;22.70;91.30
8226;DHT22;4154;48.810;9.012;2022-07-29T19:51:39;22.80;81.40
8226;DHT22;4154;48.810;9.012;2022-07-29T19:56:33;22.80;80.70
8226;DHT22;4154;48.810;9.012;2022-07-29T20:03:51;22.70;82.10
8226;DHT22;4154;48.810;9.012;2022-07-29T20:16:03;22.50;92.90
8226;DHT22;4154;48.810;9.012;2022-07-29T20:18:30;22.40;81.70
8226;DHT22;4154;48.810;9.012;2022-07-29T20:20:57;22.40;92.10
8226;DHT22;4154;48.810;9.012;2022-07-29T20:23:33;22.30;81.70
8226;DHT22;4154;48.810;9.012;2022-07-29T20:35:43;21.90;82.00
8226;DHT22;4154;48.810;9.012;2022-07-29T20:50:22;21.70;83.30
8226;DHT22;4154;48.810;9.012;2022-07-29T20:55:15;21.60;83.30
8226;DHT22;4154;48.810;9.012;2022-07-29T21:00:08;21.60;83.50
8226;DHT22;4154;48.810;9.012;2022-07-29T21:02:35;21.50;92.60
8226;DHT22;4154;48.810;9.012;2022-07-29T21:12:19;21.50;92.80
8226;DHT22;4154;48.810;9.012;2022-07-29T21:14:45;21.50;83.80
8226;DHT22;4154;48.810;9.012;2022-07-29T21:17:13;21.50;83.50
8226;DHT22;4154;48.810;9.012;2022-07-29T21:19:40;21.50;83.60
8226;DHT22;4154;48.810;9.012;2022-07-29T21:26:58;21.40;83.80
8226;DHT22;4154;48.810;9.012;2022-07-29T21:34:35;21.20;94.60
8226;DHT22;4154;48.810;9.012;2022-07-29T21:37:00;21.30;88.10
8226;DHT22;4154;48.810;9.012;2022-07-29T21:39:26;21.20;88.40
8226;DHT22;4154;48.810;9.012;2022-07-29T21:46:46;21.10;89.20
8226;DHT22;4154;48.810;9.012;2022-07-29T21:49:12;21.10;90.20
8226;DHT22;4154;48.810;9.012;2022-07-29T21:54:04;20.90;90.10
8226;DHT22;4154;48.810;9.012;2022-07-29T22:01:22;20.90;90.60
8226;DHT22;4154;48.810;9.012;2022-07-29T22:08:42;20.80;90.50
8226;DHT22;4154;48.810;9.012;2022-07-29T22:13:36;20.70;90.40
8226;DHT22;4154;48.810;9.012;2022-07-29T22:16:02;20.70;96.20
8226;DHT22;4154;48.810;9.012;2022-07-29T22:28:12;20.50;95.50
8226;DHT22;4154;48.810;9.012;2022-07-29T22:33:04;20.30;95.50
8226;DHT22;4154;48.810;9.012;2022-07-29T22:35:30;20.30;89.40
8226;DHT22;4154;48.810;9.012;2022-07-29T22:37:56;20.30;89.60
8226;DHT22;4154;48.810;9.012;2022-07-29T22:40:22;20.20;89.90
8226;DHT22;4154;48.810;9.012;2022-07-29T22:50:07;19.90;95.70
8226;DHT22;4154;48.810;9.012;2022-07-29T22:54:59;20.00;89.70
8226;DHT22;4154;48.810;9.012;2022-07-29T22:57:25;20.00;90.20
8226;DHT22;4154;48.810;9.012;2022-07-29T22:59:50;19.90;89.90
8226;DHT22;4154;48.810;9.012;2022-07-29T23:07:09;19.90;90.00
8226;DHT22;4154;48.810;9.012;2022-07-29T23:09:35;19.80;90.20
8226;DHT22;4154;48.810;9.012;2022-07-29T23:12:01;19.80;90.30
8226;DHT22;4154;48.810;9.012;2022-07-29T23:16:52;20.00;96.20
8226;DHT22;4154;48.810;9.012;2022-07-29T23:24:10;19.50;96.80
8226;DHT22;4154;48.810;9.012;2022-07-29T23:26:36;19.30;96.70
8226;DHT22;4154;48.810;9.012;2022-07-29T23:29:02;19.30;96.50
8226;DHT22;4154;48.810;9.012;2022-07-29T23:33:56;19.30;96.30
8226;DHT22;4154;48.810;9.012;2022-07-29T23:36:22;19.20;90.00
8226;DHT22;4154;48.810;9.012;2022-07-29T23:41:14;19.20;96.40
8226;DHT22;4154;48.810;9.012;2022-07-29T23:43:40;19.10;90.10
8226;DHT22;4154;48.810;9.012;2022-07-29T23:48:32;19.10;97.00
8226;DHT22;4154;48.810;9.012;2022-07-29T23:53:26;19.00;90.30